Time;durP1;ratioP1;P1;durP2;ratioP2;P2;SDS_P1;SDS_P2;PMS_P1;PMS_P2;Temp;Humidity;BMP_temperature;BMP_pressure;BME280_temperature;BME280_humidity;BME280_pressure;Samples;Min_cycle;Max_cycle;Signal;HPM_P1;HPM_P2
2022/12/02 00:00:29;;;;;;;40.28;27.02;;;;;;;;;;1265900;23;20365;-78
2022/12/02 00:01:00;;;;;;;49.63;32.47;;;;;;;;;;1271235;23;20425;-78
2022/12/02 00:01:32;;;;;;;47.25;31.65;;;;;;;;;;1270331;23;20020;-77
2022/12/02 00:02:21;;;;;;;41.42;29.45;;;;;;;;;;1270095;23;20277;-78
2022/12/02 00:02:53;;;;;;;50.00;33.13;;;;;;;;;;1270416;23;20001;-77
2022/12/02 00:03:25;;;;;;;39.83;26.90;;;;;;;;;;1268647;23;20013;-79
2022/12/02 00:03:56;;;;;;;36.67;24.67;;;;;;;;;;1264285;23;20018;-79
2022/12/02 00:04:28;;;;;;;45.75;30.10;;;;;;;;;;1264159;23;20088;-78
2022/12/02 00:05:04;;;;;;;43.22;29.48;;;;;;;;;;1258572;23;20137;-78
2022/12/02 00:05:35;;;;;;;47.17;31.50;;;;;;;;;;1264094;23;20097;-78
2022/12/02 00:06:14;;;;;;;48.90;34.33;;;;;;;;;;1264006;23;20057;-78
2022/12/02 00:06:45;;;;;;;44.58;29.60;;;;;;;;;;1267570;23;20010;-77
2022/12/02 00:07:19;;;;;;;45.10;29.70;;;;;;;;;;1272307;23;20041;-77
2022/12/02 00:07:50;;;;;;;42.05;27.30;;;;;;;;;;1270420;23;20018;-78
2022/12/02 00:08:25;;;;;;;48.30;33.30;;;;;;;;;;1270151;23;20012;-77
2022/12/02 00:09:02;;;;;;;55.10;35.75;;;;;;;;;;1270184;23;20010;-77
2022/12/02 00:09:34;;;;;;;44.33;29.73;;;;;;;;;;1272481;23;20009;-77
2022/12/02 00:10:28;;;;;;;43.60;30.25;;;;;;;;;;1270362;23;20051;-78
2022/12/02 00:11:03;;;;;;;49.42;32.00;;;;;;;;;;1262269;23;20061;-78
2022/12/02 00:11:34;;;;;;;47.25;29.38;;;;;;;;;;1264127;23;20010;-78
2022/12/02 00:12:31;;;;;;;45.22;30.33;;;;;;;;;;1269813;23;20009;-78
2022/12/02 00:13:11;;;;;;;43.38;27.95;;;;;;;;;;1264957;23;20045;-78
2022/12/02 00:13:43;;;;;;;47.72;31.88;;;;;;;;;;1271217;23;19997;-79
2022/12/02 00:14:16;;;;;;;46.58;30.83;;;;;;;;;;1270473;23;20385;-79
2022/12/02 00:14:54;;;;;;;46.88;31.15;;;;;;;;;;1270234;23;20407;-79
2022/12/02 00:15:46;;;;;;;53.17;33.92;;;;;;;;;;1264236;23;20009;-79
2022/12/02 00:16:21;;;;;;;52.38;35.35;;;;;;;;;;1270331;23;20372;-78
2022/12/02 00:16:52;;;;;;;51.65;33.58;;;;;;;;;;1270214;23;20216;-78
2022/12/02 00:17:24;;;;;;;50.15;33.10;;;;;;;;;;1269637;23;20008;-78
2022/12/02 00:17:55;;;;;;;48.33;32.80;;;;;;;;;;1270105;23;20390;-78
2022/12/02 00:18:26;;;;;;;41.72;27.85;;;;;;;;;;1270192;23;20394;-79
2022/12/02 00:18:57;;;;;;;48.63;34.03;;;;;;;;;;1270160;23;20008;-79
2022/12/02 00:19:28;;;;;;;51.40;33.15;;;;;;;;;;1270462;23;20017;-79
2022/12/02 00:19:59;;;;;;;50.00;34.22;;;;;;;;;;1269783;23;20063;-78
2022/12/02 00:20:30;;;;;;;49.05;33.92;;;;;;;;;;1270553;23;20101;-79
2022/12/02 00:21:01;;;;;;;52.70;35.67;;;;;;;;;;1269904;23;20008;-78
2022/12/02 00:21:32;;;;;;;48.72;32.47;;;;;;;;;;1270813;23;20326;-78
2022/12/02 00:22:05;;;;;;;47.50;33.47;;;;;;;;;;1269758;23;20002;-78
2022/12/02 00:22:36;;;;;;;50.55;32.58;;;;;;;;;;1264618;23;20081;-78
2022/12/02 00:23:07;;;;;;;42.97;29.08;;;;;;;;;;1263892;23;20002;-77
2022/12/02 00:23:38;;;;;;;44.92;30.83;;;;;;;;;;1265185;23;20089;-78
2022/12/02 00:24:09;;;;;;;52.60;33.78;;;;;;;;;;1270035;23;19997;-78
2022/12/02 00:24:40;;;;;;;55.70;37.45;;;;;;;;;;1270397;23;20002;-78
2022/12/02 00:25:11;;;;;;;52.80;33.20;;;;;;;;;;1270505;23;20001;-78
2022/12/02 00:25:44;;;;;;;49.83;33.15;;;;;;;;;;1276909;23;19993;-78
2022/12/02 00:26:15;;;;;;;46.08;29.40;;;;;;;;;;1269688;23;20028;-78
2022/12/02 00:26:46;;;;;;;55.85;32.45;;;;;;;;;;1270635;23;20437;-78
2022/12/02 00:27:17;;;;;;;47.40;33.05;;;;;;;;;;1263985;23;20442;-77
2022/12/02 00:27:48;;;;;;;50.72;34.10;;;;;;;;;;1264582;23;20113;-78
2022/12/02 00:28:19;;;;;;;57.08;37.80;;;;;;;;;;1269994;23;20001;-78
2022/12/02 00:28:50;;;;;;;49.83;33.72;;;;;;;;;;1270322;23;19997;-78
2022/12/02 00:29:21;;;;;;;55.83;35.30;;;;;;;;;;1264022;23;20006;-77
2022/12/02 00:29:52;;;;;;;55.92;33.35;;;;;;;;;;1270415;23;20008;-78
2022/12/02 00:30:23;;;;;;;54.92;35.03;;;;;;;;;;1269926;23;20006;-77
2022/12/02 00:30:54;;;;;;;58.88;37.92;;;;;;;;;;1270347;23;20119;-78
2022/12/02 00:31:25;;;;;;;53.33;34.05;;;;;;;;;;1269553;23;20001;-78
2022/12/02 00:31:56;;;;;;;64.00;41.85;;;;;;;;;;1264432;23;20001;-77
2022/12/02 00:32:27;;;;;;;59.45;36.28;;;;;;;;;;1264258;23;20035;-78
2022/12/02 00:32:58;;;;;;;64.75;39.80;;;;;;;;;;1270786;23;19993;-78
2022/12/02 00:33:29;;;;;;;64.40;39.05;;;;;;;;;;1276752;23;20064;-79
2022/12/02 00:34:00;;;;;;;51.15;34.50;;;;;;;;;;1276498;23;20036;-78
2022/12/02 00:34:31;;;;;;;52.65;31.80;;;;;;;;;;1276723;23;20004;-78
2022/12/02 00:35:02;;;;;;;58.00;35.47;;;;;;;;;;1270161;23;20033;-78
2022/12/02 00:35:33;;;;;;;53.95;34.72;;;;;;;;;;1270210;23;20025;-77
2022/12/02 00:36:04;;;;;;;52.75;35.10;;;;;;;;;;1263789;23;20030;-79
2022/12/02 00:36:35;;;;;;;63.05;37.97;;;;;;;;;;1264521;23;20010;-78
2022/12/02 00:37:06;;;;;;;62.38;38.90;;;;;;;;;;1264253;23;20456;-78
2022/12/02 00:37:37;;;;;;;51.42;33.45;;;;;;;;;;1258396;23;20002;-78
2022/12/02 00:38:08;;;;;;;58.63;37.65;;;;;;;;;;1263916;23;20457;-78
2022/12/02 00:38:39;;;;;;;55.53;32.42;;;;;;;;;;1264683;23;20013;-78
2022/12/02 00:39:10;;;;;;;59.33;37.00;;;;;;;;;;1264280;23;20438;-77
2022/12/02 00:39:41;;;;;;;44.90;28.55;;;;;;;;;;1270148;23;20092;-78
2022/12/02 00:40:12;;;;;;;57.42;35.92;;;;;;;;;;1270049;23;20012;-78
2022/12/02 00:40:43;;;;;;;47.58;30.67;;;;;;;;;;1270230;23;20005;-78
2022/12/02 00:41:14;;;;;;;52.42;31.17;;;;;;;;;;1269710;23;20036;-78
2022/12/02 00:41:45;;;;;;;56.15;36.08;;;;;;;;;;1264703;23;19998;-78
2022/12/02 00:42:16;;;;;;;51.30;31.05;;;;;;;;;;1270121;23;20385;-78
2022/12/02 00:42:47;;;;;;;50.83;33.90;;;;;;;;;;1270181;23;20464;-78
2022/12/02 00:46:39;;;;;;;56.65;33.80;;;;;;;;;;1277324;23;20343;-78
2022/12/02 00:47:10;;;;;;;60.97;34.55;;;;;;;;;;1269622;23;20036;-79
2022/12/02 00:47:41;;;;;;;55.72;33.85;;;;;;;;;;1264170;23;20006;-78
2022/12/02 00:48:11;;;;;;;60.33;37.83;;;;;;;;;;1263925;23;20073;-78
2022/12/02 00:48:42;;;;;;;61.80;38.42;;;;;;;;;;1264254;23;20657;-78
2022/12/02 00:49:15;;;;;;;62.70;37.00;;;;;;;;;;1270243;23;20448;-79
2022/12/02 00:49:46;;;;;;;48.30;30.55;;;;;;;;;;1270047;23;20028;-78
2022/12/02 00:50:17;;;;;;;56.75;36.35;;;;;;;;;;1264576;23;20021;-79
2022/12/02 00:50:48;;;;;;;57.63;35.05;;;;;;;;;;1270417;23;20005;-78
2022/12/02 00:51:19;;;;;;;61.83;38.63;;;;;;;;;;1270042;23;20001;-79
2022/12/02 00:51:49;;;;;;;66.03;41.20;;;;;;;;;;1270715;23;20526;-79
2022/12/02 00:52:20;;;;;;;55.00;34.58;;;;;;;;;;1276549;23;20438;-79
2022/12/02 00:52:51;;;;;;;55.22;33.40;;;;;;;;;;1269678;23;20044;-78
2022/12/02 00:53:22;;;;;;;53.65;31.38;;;;;;;;;;1270082;23;20052;-79
2022/12/02 00:53:53;;;;;;;49.22;30.65;;;;;;;;;;1269844;23;20476;-78
2022/12/02 00:54:24;;;;;;;49.30;31.27;;;;;;;;;;1263952;23;20105;-79
2022/12/02 00:54:55;;;;;;;65.43;37.20;;;;;;;;;;1270072;23;20005;-79
2022/12/02 00:55:26;;;;;;;62.80;38.63;;;;;;;;;;1269925;23;20101;-78
2022/12/02 00:55:57;;;;;;;74.47;45.08;;;;;;;;;;1270081;23;20299;-78
2022/12/02 00:56:28;;;;;;;74.43;46.17;;;;;;;;;;1276428;23;19997;-78
2022/12/02 00:57:00;;;;;;;80.90;45.42;;;;;;;;;;1276325;23;20005;-78
2022/12/02 00:57:31;;;;;;;74.60;41.92;;;;;;;;;;1276263;23;20036;-79
2022/12/02 00:58:02;;;;;;;69.57;39.92;;;;;;;;;;1276217;23;20011;-79
2022/12/02 00:58:33;;;;;;;84.22;47.33;;;;;;;;;;1276671;23;19997;-79
2022/12/02 00:59:04;;;;;;;79.50;41.15;;;;;;;;;;1269526;23;20107;-78
2022/12/02 00:59:35;;;;;;;79.03;44.35;;;;;;;;;;1263769;23;20010;-78
2022/12/02 01:00:07;;;;;;;70.28;37.55;;;;;;;;;;1263664;23;20010;-79
2022/12/02 01:00:37;;;;;;;81.40;44.97;;;;;;;;;;1264499;23;19998;-79
2022/12/02 01:01:08;;;;;;;65.35;36.47;;;;;;;;;;1263894;23;20010;-79
2022/12/02 01:01:43;;;;;;;76.70;40.33;;;;;;;;;;1270128;23;20055;-78
2022/12/02 01:02:14;;;;;;;68.15;39.03;;;;;;;;;;1269353;23;20369;-79
2022/12/02 01:02:45;;;;;;;71.80;40.03;;;;;;;;;;1269844;23;20438;-79
2022/12/02 01:03:16;;;;;;;72.53;39.08;;;;;;;;;;1269760;23;20006;-78
2022/12/02 01:03:47;;;;;;;89.25;50.83;;;;;;;;;;1269611;23;20009;-78
2022/12/02 01:04:18;;;;;;;80.88;45.95;;;;;;;;;;1269430;23;20351;-79
2022/12/02 01:04:49;;;;;;;83.18;43.42;;;;;;;;;;1269899;23;20002;-78
2022/12/02 01:05:19;;;;;;;77.78;43.47;;;;;;;;;;1269618;23;20080;-79
2022/12/02 01:05:51;;;;;;;73.78;40.20;;;;;;;;;;1269736;23;20001;-78
2022/12/02 01:06:22;;;;;;;61.97;33.28;;;;;;;;;;1263836;23;20082;-78
2022/12/02 01:06:52;;;;;;;86.00;47.80;;;;;;;;;;1270403;23;20008;-80
2022/12/02 01:07:23;;;;;;;71.00;37.10;;;;;;;;;;1269541;23;20341;-78
2022/12/02 01:07:54;;;;;;;81.65;44.05;;;;;;;;;;1263766;23;20164;-79
2022/12/02 01:08:26;;;;;;;62.25;34.55;;;;;;;;;;1263624;23;20466;-78
2022/12/02 01:08:57;;;;;;;63.15;36.30;;;;;;;;;;1264047;23;20044;-79
2022/12/02 01:09:28;;;;;;;75.30;42.15;;;;;;;;;;1264101;23;20044;-78
2022/12/02 01:09:59;;;;;;;82.00;45.28;;;;;;;;;;1270013;23;20090;-79
2022/12/02 01:10:30;;;;;;;90.10;50.58;;;;;;;;;;1270074;23;20100;-79
2022/12/02 01:11:01;;;;;;;84.13;47.67;;;;;;;;;;1269925;23;20604;-78
2022/12/02 01:11:32;;;;;;;81.35;46.35;;;;;;;;;;1269967;23;20006;-78
2022/12/02 01:12:03;;;;;;;80.65;43.75;;;;;;;;;;1263688;23;20093;-79
2022/12/02 01:12:34;;;;;;;74.55;39.95;;;;;;;;;;1269875;23;20460;-79
2022/12/02 01:13:05;;;;;;;84.35;45.70;;;;;;;;;;1269973;23;19997;-78
2022/12/02 01:13:36;;;;;;;83.97;42.08;;;;;;;;;;1269442;23;20002;-78
2022/12/02 01:14:07;;;;;;;61.42;35.10;;;;;;;;;;1269746;23;20013;-79
2022/12/02 01:14:38;;;;;;;85.65;45.00;;;;;;;;;;1269573;23;20001;-78
2022/12/02 01:15:09;;;;;;;74.60;41.30;;;;;;;;;;1269795;23;20528;-79
2022/12/02 01:15:40;;;;;;;72.97;43.28;;;;;;;;;;1269606;23;20004;-78
2022/12/02 01:16:11;;;;;;;79.45;44.30;;;;;;;;;;1269960;23;20100;-77
2022/12/02 01:16:42;;;;;;;63.28;33.13;;;;;;;;;;1269609;23;19997;-78
2022/12/02 01:17:16;;;;;;;65.53;35.78;;;;;;;;;;1264010;23;20002;-78
2022/12/02 01:17:47;;;;;;;67.68;36.60;;;;;;;;;;1269605;23;20081;-79
2022/12/02 01:18:18;;;;;;;77.75;41.20;;;;;;;;;;1269742;23;20002;-79
2022/12/02 01:18:49;;;;;;;73.43;42.80;;;;;;;;;;1269535;23;19998;-78
2022/12/02 01:19:20;;;;;;;65.95;38.20;;;;;;;;;;1269856;23;20315;-79
2022/12/02 01:19:51;;;;;;;71.93;39.10;;;;;;;;;;1269081;23;20002;-79
2022/12/02 01:20:22;;;;;;;68.18;36.35;;;;;;;;;;1264096;23;19994;-78
2022/12/02 01:20:53;;;;;;;58.65;33.17;;;;;;;;;;1270313;23;19994;-79
2022/12/02 01:21:24;;;;;;;69.55;37.45;;;;;;;;;;1269725;23;20004;-78
2022/12/02 01:21:55;;;;;;;60.70;33.58;;;;;;;;;;1263782;23;20013;-79
2022/12/02 01:22:26;;;;;;;70.97;37.58;;;;;;;;;;1263570;23;20231;-80
2022/12/02 01:22:57;;;;;;;61.65;34.67;;;;;;;;;;1264052;23;20002;-79
2022/12/02 01:23:28;;;;;;;74.47;41.90;;;;;;;;;;1270293;23;20069;-79
2022/12/02 01:23:59;;;;;;;68.32;37.72;;;;;;;;;;1276352;23;19997;-79
2022/12/02 01:24:29;;;;;;;55.75;31.80;;;;;;;;;;1269914;23;20005;-78
2022/12/02 01:25:00;;;;;;;74.88;40.90;;;;;;;;;;1263627;23;20551;-79
2022/12/02 01:25:31;;;;;;;63.70;34.83;;;;;;;;;;1263731;23;20010;-79
2022/12/02 01:26:05;;;;;;;65.47;34.88;;;;;;;;;;1263917;23;20012;-79
2022/12/02 01:26:37;;;;;;;70.65;37.38;;;;;;;;;;1270036;23;20121;-79
2022/12/02 01:27:08;;;;;;;64.35;35.75;;;;;;;;;;1269676;23;20045;-79
2022/12/02 01:27:39;;;;;;;67.50;36.88;;;;;;;;;;1271181;23;20024;-79
2022/12/02 01:28:10;;;;;;;66.47;37.22;;;;;;;;;;1276488;23;20448;-79
2022/12/02 01:28:41;;;;;;;54.28;31.55;;;;;;;;;;1276767;23;20060;-79
2022/12/02 01:29:12;;;;;;;77.13;44.78;;;;;;;;;;1276598;23;20001;-79
2022/12/02 01:29:43;;;;;;;70.85;38.42;;;;;;;;;;1276711;23;20005;-78
2022/12/02 01:30:14;;;;;;;56.40;33.40;;;;;;;;;;1276539;23;20005;-79
2022/12/02 01:30:46;;;;;;;47.75;28.35;;;;;;;;;;1270106;23;20009;-79
2022/12/02 01:31:17;;;;;;;52.53;29.33;;;;;;;;;;1263998;23;20009;-80
2022/12/02 01:31:48;;;;;;;67.80;37.80;;;;;;;;;;1264272;23;20008;-79
2022/12/02 01:32:19;;;;;;;67.72;38.00;;;;;;;;;;1264534;23;20337;-79
2022/12/02 01:32:50;;;;;;;60.47;35.17;;;;;;;;;;1264704;23;20006;-79
2022/12/02 01:33:21;;;;;;;60.70;35.35;;;;;;;;;;1269960;23;20005;-78
2022/12/02 01:33:52;;;;;;;61.83;35.83;;;;;;;;;;1270003;23;20032;-79
2022/12/02 01:34:23;;;;;;;59.08;35.17;;;;;;;;;;1270010;23;20002;-79
2022/12/02 01:34:54;;;;;;;64.88;36.60;;;;;;;;;;1269735;23;20002;-78
2022/12/02 01:35:25;;;;;;;55.92;32.72;;;;;;;;;;1264101;23;19998;-79
2022/12/02 01:35:56;;;;;;;75.93;39.72;;;;;;;;;;1264342;23;19994;-79
2022/12/02 01:36:27;;;;;;;60.63;36.95;;;;;;;;;;1270194;23;20002;-79
2022/12/02 01:36:58;;;;;;;64.25;33.08;;;;;;;;;;1276751;23;20352;-79
2022/12/02 01:37:29;;;;;;;63.85;32.70;;;;;;;;;;1270234;23;19998;-78
2022/12/02 01:38:00;;;;;;;51.40;28.75;;;;;;;;;;1263743;23;20010;-78
2022/12/02 01:38:31;;;;;;;56.30;33.90;;;;;;;;;;1264235;23;19994;-79
2022/12/02 01:39:02;;;;;;;54.50;30.73;;;;;;;;;;1264443;23;20390;-79
2022/12/02 01:39:33;;;;;;;58.58;35.78;;;;;;;;;;1264339;23;20002;-79
2022/12/02 01:40:05;;;;;;;55.90;32.08;;;;;;;;;;1270108;23;20009;-79
2022/12/02 01:40:37;;;;;;;57.22;32.75;;;;;;;;;;1270140;23;19997;-79
2022/12/02 01:41:08;;;;;;;65.60;36.80;;;;;;;;;;1269821;23;20024;-79
2022/12/02 01:41:38;;;;;;;61.00;35.60;;;;;;;;;;1270450;23;20080;-79
2022/12/02 01:42:10;;;;;;;61.03;31.75;;;;;;;;;;1269609;23;20136;-79
2022/12/02 01:42:41;;;;;;;43.78;25.10;;;;;;;;;;1264628;23;20002;-80
2022/12/02 01:43:12;;;;;;;50.42;30.23;;;;;;;;;;1269929;23;20049;-80
2022/12/02 01:43:43;;;;;;;62.58;36.38;;;;;;;;;;1270300;23;20005;-78
2022/12/02 01:44:14;;;;;;;53.33;32.25;;;;;;;;;;1269710;23;20001;-78
2022/12/02 01:44:45;;;;;;;64.25;34.15;;;;;;;;;;1270446;23;20050;-78
2022/12/02 01:45:16;;;;;;;62.67;34.95;;;;;;;;;;1269455;23;20109;-78
2022/12/02 01:45:47;;;;;;;52.78;31.23;;;;;;;;;;1270224;23;20020;-79
2022/12/02 01:46:18;;;;;;;64.15;36.17;;;;;;;;;;1269713;23;20077;-78
2022/12/02 01:46:50;;;;;;;66.95;36.72;;;;;;;;;;1270502;23;20036;-80
2022/12/02 01:47:21;;;;;;;62.85;35.40;;;;;;;;;;1269261;23;20084;-79
2022/12/02 01:47:52;;;;;;;56.55;32.58;;;;;;;;;;1270461;23;20033;-78
2022/12/02 01:48:23;;;;;;;53.85;28.88;;;;;;;;;;1269766;23;20029;-79
2022/12/02 01:48:54;;;;;;;50.08;28.55;;;;;;;;;;1270266;23;19998;-79
2022/12/02 01:49:25;;;;;;;64.43;36.60;;;;;;;;;;1269309;23;20471;-78
2022/12/02 01:49:56;;;;;;;56.03;32.45;;;;;;;;;;1270217;23;20338;-80
2022/12/02 01:50:28;;;;;;;54.13;33.78;;;;;;;;;;1269716;23;19994;-79
2022/12/02 01:50:59;;;;;;;48.83;28.52;;;;;;;;;;1270060;23;20076;-80
2022/12/02 01:51:30;;;;;;;51.05;31.13;;;;;;;;;;1269843;23;19997;-79
2022/12/02 01:52:01;;;;;;;49.70;30.50;;;;;;;;;;1270085;23;20418;-79
2022/12/02 01:52:32;;;;;;;53.90;29.42;;;;;;;;;;1270477;23;20358;-78
2022/12/02 01:53:03;;;;;;;60.40;36.53;;;;;;;;;;1276534;23;20008;-79
2022/12/02 01:53:35;;;;;;;55.10;31.58;;;;;;;;;;1276596;23;20001;-79
2022/12/02 01:54:06;;;;;;;50.55;31.40;;;;;;;;;;1276731;23;20009;-79
2022/12/02 01:54:38;;;;;;;63.95;36.67;;;;;;;;;;1276435;23;20037;-79
2022/12/02 01:55:14;;;;;;;67.97;40.85;;;;;;;;;;1276974;23;20044;-79
2022/12/02 01:55:45;;;;;;;63.63;33.78;;;;;;;;;;1276616;23;20420;-79
2022/12/02 01:56:16;;;;;;;60.20;32.35;;;;;;;;;;1276742;23;20004;-79
2022/12/02 01:56:46;;;;;;;59.10;35.20;;;;;;;;;;1270014;23;20012;-79
2022/12/02 01:57:19;;;;;;;59.50;34.00;;;;;;;;;;1270424;23;20218;-79
2022/12/02 01:57:50;;;;;;;54.25;30.85;;;;;;;;;;1269951;23;20405;-80
2022/12/02 01:58:24;;;;;;;53.35;31.75;;;;;;;;;;1270682;23;20005;-78
2022/12/02 01:58:55;;;;;;;52.95;29.00;;;;;;;;;;1276700;23;20011;-79
2022/12/02 01:59:26;;;;;;;65.28;35.50;;;;;;;;;;1270520;23;20017;-78
2022/12/02 01:59:57;;;;;;;45.53;26.50;;;;;;;;;;1270595;23;20044;-79
2022/12/02 02:00:28;;;;;;;45.67;25.92;;;;;;;;;;1270595;23;20008;-79
2022/12/02 02:00:59;;;;;;;44.92;26.75;;;;;;;;;;1270763;23;20028;-79
2022/12/02 02:01:32;;;;;;;48.75;28.30;;;;;;;;;;1270471;23;20373;-78
2022/12/02 02:02:02;;;;;;;51.25;31.15;;;;;;;;;;1264295;23;20325;-79
2022/12/02 02:02:36;;;;;;;52.80;32.03;;;;;;;;;;1264618;23;20006;-79
2022/12/02 02:03:07;;;;;;;59.22;34.80;;;;;;;;;;1265091;23;20083;-78
2022/12/02 02:03:38;;;;;;;51.03;31.52;;;;;;;;;;1264599;23;20108;-78
2022/12/02 02:04:10;;;;;;;50.10;31.02;;;;;;;;;;1264077;23;20059;-79
2022/12/02 02:04:41;;;;;;;54.72;33.33;;;;;;;;;;1259039;23;20433;-79
2022/12/02 02:05:17;;;;;;;55.60;35.17;;;;;;;;;;1264532;23;20435;-78
2022/12/02 02:05:49;;;;;;;53.25;33.83;;;;;;;;;;1264448;23;20338;-79
2022/12/02 02:06:20;;;;;;;51.42;30.50;;;;;;;;;;1265795;23;20081;-79
2022/12/02 02:06:51;;;;;;;57.25;33.20;;;;;;;;;;1266096;23;20018;-79
2022/12/02 02:07:22;;;;;;;63.13;33.95;;;;;;;;;;1270501;23;20037;-79
2022/12/02 02:07:54;;;;;;;64.97;36.10;;;;;;;;;;1270645;23;20464;-79
2022/12/02 02:08:25;;;;;;;63.22;38.80;;;;;;;;;;1270277;23;20319;-79
2022/12/02 02:08:57;;;;;;;65.57;40.00;;;;;;;;;;1270265;23;20487;-79
2022/12/02 02:09:28;;;;;;;57.30;31.55;;;;;;;;;;1269469;23;20242;-79
2022/12/02 02:09:59;;;;;;;52.28;31.55;;;;;;;;;;1264782;23;20448;-79
2022/12/02 02:10:30;;;;;;;62.90;36.45;;;;;;;;;;1270272;23;20104;-79
2022/12/02 02:11:01;;;;;;;56.70;33.45;;;;;;;;;;1270572;23;20010;-79
2022/12/02 02:11:32;;;;;;;49.50;29.10;;;;;;;;;;1270450;23;20009;-79
2022/12/02 02:12:03;;;;;;;56.50;33.65;;;;;;;;;;1270087;23;20005;-79
2022/12/02 02:12:34;;;;;;;54.78;33.75;;;;;;;;;;1264584;23;20164;-80
2022/12/02 02:13:06;;;;;;;56.17;32.97;;;;;;;;;;1271220;23;20068;-78
2022/12/02 02:13:38;;;;;;;55.28;32.67;;;;;;;;;;1276553;23;20083;-79
2022/12/02 02:14:10;;;;;;;58.92;35.28;;;;;;;;;;1270417;23;20579;-79
2022/12/02 02:14:41;;;;;;;55.65;34.30;;;;;;;;;;1270418;23;20080;-79
2022/12/02 02:15:13;;;;;;;51.88;30.65;;;;;;;;;;1264286;23;20002;-80
2022/12/02 02:15:44;;;;;;;52.85;32.63;;;;;;;;;;1264934;23;20142;-79
2022/12/02 02:16:15;;;;;;;59.90;36.70;;;;;;;;;;1264225;23;20006;-79
2022/12/02 02:16:46;;;;;;;35.95;24.67;;;;;;;;;;1264102;23;20006;-80
2022/12/02 02:17:18;;;;;;;52.35;27.92;;;;;;;;;;1264763;23;20002;-80
2022/12/02 02:17:48;;;;;;;50.17;27.33;;;;;;;;;;1270521;23;19998;-79
2022/12/02 02:18:19;;;;;;;49.45;31.60;;;;;;;;;;1270439;23;20001;-79
2022/12/02 02:18:50;;;;;;;54.47;33.33;;;;;;;;;;1270692;23;20544;-80
2022/12/02 02:19:21;;;;;;;51.30;31.50;;;;;;;;;;1270621;23;20032;-78
2022/12/02 02:19:52;;;;;;;45.80;29.35;;;;;;;;;;1263936;23;20006;-79
2022/12/02 02:20:25;;;;;;;53.95;34.50;;;;;;;;;;1264252;23;20008;-80
2022/12/02 02:20:57;;;;;;;50.20;28.55;;;;;;;;;;1265014;23;20429;-78
2022/12/02 02:21:31;;;;;;;60.03;35.75;;;;;;;;;;1264216;23;20002;-79
2022/12/02 02:22:04;;;;;;;58.03;34.17;;;;;;;;;;1264304;23;20449;-78
2022/12/02 02:22:54;;;;;;;60.28;37.15;;;;;;;;;;1266240;23;19998;-79
2022/12/02 02:23:26;;;;;;;48.47;27.73;;;;;;;;;;1270520;23;20001;-79
2022/12/02 02:23:57;;;;;;;46.10;27.00;;;;;;;;;;1263743;23;20537;-79
2022/12/02 02:24:28;;;;;;;51.70;31.05;;;;;;;;;;1264362;23;20034;-79
2022/12/02 02:24:59;;;;;;;58.22;37.28;;;;;;;;;;1264228;23;20013;-79
2022/12/02 02:25:30;;;;;;;57.53;34.65;;;;;;;;;;1265250;23;20084;-78
2022/12/02 02:26:02;;;;;;;58.08;35.72;;;;;;;;;;1264103;23;20089;-80
2022/12/02 02:26:33;;;;;;;52.55;30.63;;;;;;;;;;1259298;23;20034;-79
2022/12/02 02:27:04;;;;;;;46.92;28.73;;;;;;;;;;1264270;23;20002;-79
2022/12/02 02:27:35;;;;;;;55.13;33.55;;;;;;;;;;1265240;23;19997;-78
2022/12/02 02:28:08;;;;;;;52.63;31.80;;;;;;;;;;1264472;23;20005;-79
2022/12/02 02:28:39;;;;;;;54.05;34.85;;;;;;;;;;1270283;23;20001;-79
2022/12/02 02:29:10;;;;;;;54.00;33.33;;;;;;;;;;1270103;23;20009;-80
2022/12/02 02:29:41;;;;;;;56.53;33.30;;;;;;;;;;1269884;23;20033;-80
2022/12/02 02:30:12;;;;;;;53.95;32.38;;;;;;;;;;1264647;23;20029;-81
2022/12/02 02:30:43;;;;;;;55.95;34.63;;;;;;;;;;1264347;23;20118;-80
2022/12/02 02:31:14;;;;;;;56.35;34.35;;;;;;;;;;1270275;23;20036;-79
2022/12/02 02:31:45;;;;;;;60.20;35.75;;;;;;;;;;1270652;23;20461;-79
2022/12/02 02:32:16;;;;;;;54.25;31.73;;;;;;;;;;1270342;23;20489;-79
2022/12/02 02:32:48;;;;;;;49.42;29.70;;;;;;;;;;1269888;23;20006;-78
2022/12/02 02:33:19;;;;;;;48.60;31.70;;;;;;;;;;1264866;23;20005;-79
2022/12/02 02:33:50;;;;;;;53.53;32.00;;;;;;;;;;1270476;23;20314;-80
2022/12/02 02:34:21;;;;;;;55.53;32.90;;;;;;;;;;1270212;23;20406;-80
2022/12/02 02:34:52;;;;;;;54.38;31.55;;;;;;;;;;1270517;23;20426;-79
2022/12/02 02:35:23;;;;;;;45.97;27.88;;;;;;;;;;1269811;23;20506;-78
2022/12/02 02:35:55;;;;;;;49.83;30.10;;;;;;;;;;1264395;23;20083;-79
2022/12/02 02:36:26;;;;;;;48.30;29.13;;;;;;;;;;1264171;23;20006;-78
2022/12/02 02:36:57;;;;;;;60.58;36.53;;;;;;;;;;1264819;23;20632;-79
2022/12/02 02:37:28;;;;;;;54.70;33.20;;;;;;;;;;1270423;23;20004;-79
2022/12/02 02:37:58;;;;;;;56.00;32.92;;;;;;;;;;1270469;23;20495;-79
2022/12/02 02:38:30;;;;;;;50.53;30.75;;;;;;;;;;1270242;23;20464;-79
2022/12/02 02:39:01;;;;;;;47.13;28.65;;;;;;;;;;1270390;23;20101;-78
2022/12/02 02:39:32;;;;;;;46.17;28.17;;;;;;;;;;1270272;23;19989;-79
2022/12/02 02:40:03;;;;;;;38.72;25.80;;;;;;;;;;1269743;23;19998;-79
2022/12/02 02:40:34;;;;;;;44.17;27.83;;;;;;;;;;1264908;23;20415;-79
2022/12/02 02:41:07;;;;;;;50.45;29.83;;;;;;;;;;1270174;23;20438;-78
2022/12/02 02:41:38;;;;;;;49.50;30.30;;;;;;;;;;1270779;23;19993;-79
2022/12/02 02:42:09;;;;;;;58.03;35.08;;;;;;;;;;1270374;23;19997;-79
2022/12/02 02:42:40;;;;;;;48.25;28.67;;;;;;;;;;1270293;23;19998;-80
2022/12/02 02:43:11;;;;;;;54.90;32.05;;;;;;;;;;1270360;23;20429;-80
2022/12/02 02:43:42;;;;;;;45.15;26.77;;;;;;;;;;1270310;23;20433;-78
2022/12/02 02:44:14;;;;;;;43.33;26.80;;;;;;;;;;1270255;23;20085;-79
2022/12/02 02:44:44;;;;;;;44.10;27.13;;;;;;;;;;1270817;23;20342;-79
2022/12/02 02:45:16;;;;;;;53.97;30.65;;;;;;;;;;1269730;23;20501;-80
2022/12/02 02:45:47;;;;;;;51.30;33.38;;;;;;;;;;1265053;23;20085;-79
2022/12/02 02:46:18;;;;;;;48.78;29.10;;;;;;;;;;1263950;23;20013;-79
2022/12/02 02:46:49;;;;;;;51.10;30.10;;;;;;;;;;1264991;23;19998;-78
2022/12/02 02:47:20;;;;;;;42.40;25.73;;;;;;;;;;1270223;23;20247;-78
2022/12/02 02:47:52;;;;;;;43.60;28.80;;;;;;;;;;1270484;23;20429;-80
2022/12/02 02:48:23;;;;;;;51.45;31.88;;;;;;;;;;1270138;23;19996;-79
2022/12/02 02:48:54;;;;;;;48.67;29.60;;;;;;;;;;1270301;23;19997;-78
2022/12/02 02:49:25;;;;;;;48.50;29.42;;;;;;;;;;1269963;23;20018;-78
2022/12/02 02:49:57;;;;;;;53.40;33.15;;;;;;;;;;1270646;23;20349;-80
2022/12/02 02:50:28;;;;;;;47.70;30.33;;;;;;;;;;1270200;23;19998;-79
2022/12/02 02:50:59;;;;;;;47.50;29.10;;;;;;;;;;1270311;23;20004;-81
2022/12/02 02:51:30;;;;;;;45.40;28.30;;;;;;;;;;1269933;23;20038;-79
2022/12/02 02:52:01;;;;;;;49.65;30.83;;;;;;;;;;1270365;23;20128;-79
2022/12/02 02:52:32;;;;;;;51.40;32.53;;;;;;;;;;1270370;23;19989;-79
2022/12/02 02:53:04;;;;;;;46.78;30.73;;;;;;;;;;1270043;23;19997;-80
2022/12/02 02:53:35;;;;;;;47.60;28.40;;;;;;;;;;1264801;23;19990;-81
2022/12/02 02:54:06;;;;;;;55.45;35.72;;;;;;;;;;1270467;23;20017;-81
2022/12/02 02:54:37;;;;;;;39.13;23.10;;;;;;;;;;1269930;23;20010;-79
2022/12/02 02:55:10;;;;;;;52.60;34.33;;;;;;;;;;1270589;23;20037;-79
2022/12/02 02:55:41;;;;;;;48.63;29.58;;;;;;;;;;1269435;23;20242;-79
2022/12/02 02:56:12;;;;;;;48.42;32.17;;;;;;;;;;1269557;23;20354;-80
2022/12/02 02:56:43;;;;;;;45.38;28.70;;;;;;;;;;1270014;23;20034;-80
2022/12/02 02:57:14;;;;;;;50.50;31.15;;;;;;;;;;1270302;23;20037;-79
2022/12/02 02:57:46;;;;;;;40.33;25.73;;;;;;;;;;1269831;23;20051;-79
2022/12/02 02:58:18;;;;;;;47.38;28.88;;;;;;;;;;1264638;23;20472;-79
2022/12/02 02:58:49;;;;;;;50.30;30.67;;;;;;;;;;1271026;23;20006;-79
2022/12/02 02:59:20;;;;;;;42.45;26.50;;;;;;;;;;1277052;23;20005;-78
2022/12/02 02:59:53;;;;;;;47.03;28.77;;;;;;;;;;1270148;23;20005;-79
2022/12/02 03:00:24;;;;;;;47.35;30.20;;;;;;;;;;1264010;23;20391;-79
2022/12/02 03:00:57;;;;;;;40.17;24.42;;;;;;;;;;1264248;23;20077;-78
2022/12/02 03:01:31;;;;;;;46.60;29.85;;;;;;;;;;1265693;23;20330;-79
2022/12/02 03:02:05;;;;;;;42.05;25.17;;;;;;;;;;1269926;23;20044;-79
2022/12/02 03:02:36;;;;;;;38.45;25.48;;;;;;;;;;1264530;23;20013;-79
2022/12/02 03:03:07;;;;;;;45.47;27.95;;;;;;;;;;1265657;23;20006;-80
2022/12/02 03:03:40;;;;;;;42.35;25.92;;;;;;;;;;1270617;23;20006;-81
2022/12/02 03:04:12;;;;;;;42.90;26.17;;;;;;;;;;1270350;23;20072;-80
2022/12/02 03:04:44;;;;;;;44.30;27.52;;;;;;;;;;1268865;23;20064;-79
2022/12/02 03:05:15;;;;;;;37.15;23.70;;;;;;;;;;1270303;23;20334;-80
2022/12/02 03:05:46;;;;;;;35.38;22.52;;;;;;;;;;1270580;23;20005;-79
2022/12/02 03:06:17;;;;;;;35.45;23.13;;;;;;;;;;1270517;23;20333;-79
2022/12/02 03:06:49;;;;;;;35.25;21.98;;;;;;;;;;1270630;23;20092;-79
2022/12/02 03:07:20;;;;;;;40.65;23.50;;;;;;;;;;1270198;23;20009;-79
2022/12/02 03:07:52;;;;;;;40.20;24.77;;;;;;;;;;1270676;23;20002;-80